Waco's Hourly Summary for Thursday, March 9, 2017
Hour Temp
(f)
RH
(%)
Solar Rad.
(MJ/m2)
Rainfall
(in)
Wind
(mph)
3/9/2017 12:00 AM 63 73 0 0 4.29
3/9/2017 1:00 AM 63 80 0 0 4.16
3/9/2017 2:00 AM 64 83 0 0 2.17
3/9/2017 3:00 AM 65 84 0 0 1.43
3/9/2017 4:00 AM 65 86 0 0 2.21
3/9/2017 5:00 AM 65 89 0 0 3.59
3/9/2017 6:00 AM 64 89 0 0 3.65
3/9/2017 7:00 AM 65 89 0 0 3.53
3/9/2017 8:00 AM 65 88 0.09 0 2.75
3/9/2017 9:00 AM 65 88 0.12 0 3.48
3/9/2017 10:00 AM 66 87 0.38 0 4.03
3/9/2017 11:00 AM 68 83 0.45 0 5.25
3/9/2017 12:00 PM 69 79 0.62 0 4.92
3/9/2017 1:00 PM 71 74 0.82 0 5.09
3/9/2017 2:00 PM 74 65 1.17 0 6.78
3/9/2017 3:00 PM 75 63 1.42 0 7.45
3/9/2017 4:00 PM 76 62 0.99 0 5.96
3/9/2017 5:00 PM 77 59 0.71 0 5.6
3/9/2017 6:00 PM 76 61 0.18 0 5.41
3/9/2017 7:00 PM 74 68 0.01 0 5.37
3/9/2017 8:00 PM 72 73 0 0 6.05
3/9/2017 9:00 PM 71 78 0 0 6.23
3/9/2017 10:00 PM 70 77 0 0 6.92
3/9/2017 11:00 PM 69 77 0 0 5.54
Data Summary 68 77 6.96 0.00 4.66